Time;durP1;ratioP1;P1;durP2;ratioP2;P2;SDS_P1;SDS_P2;PMS_P1;PMS_P2;Temp;Humidity;BMP_temperature;BMP_pressure;BME280_temperature;BME280_humidity;BME280_pressure;Samples;Min_cycle;Max_cycle;Signal;HPM_P1;HPM_P2
2021/04/05 00:00:10;;;;;;;19.33;13.57;;;4.30;1.00;;;;;;5093388;28;20648;-69
2021/04/05 00:02:36;;;;;;;18.30;12.80;;;4.40;1.00;;;;;;5093150;28;20401;-69
2021/04/05 00:05:06;;;;;;;27.27;15.20;;;4.30;1.00;;;;;;5093168;28;20175;-69
2021/04/05 00:07:32;;;;;;;22.88;12.70;;;4.20;1.00;;;;;;5093048;28;20494;-69
2021/04/05 00:09:57;;;;;;;24.03;12.63;;;4.20;1.00;;;;;;5093431;28;20643;-69
2021/04/05 00:12:23;;;;;;;23.80;14.10;;;4.00;1.00;;;;;;5093131;28;20617;-69
2021/04/05 00:14:48;;;;;;;22.93;14.37;;;4.00;1.00;;;;;;5093169;28;20191;-69
2021/04/05 00:17:14;;;;;;;24.97;13.70;;;4.10;1.00;;;;;;5093101;28;20528;-69
2021/04/05 00:19:43;;;;;;;27.07;13.60;;;4.20;1.00;;;;;;5091798;28;20574;-69
2021/04/05 00:22:09;;;;;;;22.52;14.30;;;4.20;1.00;;;;;;5092891;28;20266;-69
2021/04/05 00:24:35;;;;;;;31.27;14.70;;;4.50;1.00;;;;;;5092906;28;20603;-69
2021/04/05 00:27:01;;;;;;;26.47;14.77;;;4.40;1.00;;;;;;5091698;28;20753;-69
2021/04/05 00:29:26;;;;;;;22.70;15.33;;;4.50;1.00;;;;;;5092991;28;20384;-69
2021/04/05 00:31:52;;;;;;;31.67;14.73;;;4.60;1.00;;;;;;5092977;28;20167;-68
2021/04/05 00:34:18;;;;;;;32.13;15.40;;;4.80;1.00;;;;;;5092927;28;20421;-69
2021/04/05 00:36:43;;;;;;;28.50;15.67;;;4.70;1.00;;;;;;5092426;28;20167;-69
2021/04/05 00:39:09;;;;;;;19.80;14.27;;;4.80;1.00;;;;;;5093064;28;20175;-69
2021/04/05 00:41:35;;;;;;;23.20;14.53;;;4.90;1.00;;;;;;5092777;28;20570;-69
2021/04/05 00:44:01;;;;;;;26.45;14.75;;;5.00;1.00;;;;;;5093118;28;20199;-69
2021/04/05 00:46:26;;;;;;;27.53;16.40;;;5.20;1.00;;;;;;5093067;28;20171;-69
2021/04/05 00:48:52;;;;;;;24.47;15.20;;;5.10;1.00;;;;;;5092783;28;20163;-68
2021/04/05 00:51:23;;;;;;;26.33;15.33;;;5.10;1.00;;;;;;5092987;28;20376;-69
2021/04/05 00:53:50;;;;;;;29.63;15.55;;;5.00;1.00;;;;;;5092674;28;20429;-69
2021/04/05 00:56:22;;;;;;;27.55;15.20;;;4.90;1.00;;;;;;5092963;28;20532;-69
2021/04/05 00:58:49;;;;;;;26.23;15.23;;;5.00;1.00;;;;;;5096143;28;20163;-69
2021/04/05 01:01:20;;;;;;;30.35;17.42;;;5.20;1.00;;;;;;5096741;28;20194;-69
2021/04/05 01:03:47;;;;;;;33.88;15.30;;;5.30;1.00;;;;;;5097593;28;20233;-69
2021/04/05 01:06:19;;;;;;;31.80;16.67;;;5.40;1.00;;;;;;5096994;28;20206;-69
2021/04/05 01:08:45;;;;;;;29.30;16.02;;;5.50;1.00;;;;;;5096598;28;20179;-69
2021/04/05 01:11:13;;;;;;;26.17;16.30;;;5.40;1.00;;;;;;5096557;28;20250;-69
2021/04/05 01:13:38;;;;;;;40.47;19.77;;;5.40;1.00;;;;;;5097290;28;20425;-71
2021/04/05 01:16:04;;;;;;;33.67;16.80;;;5.40;1.00;;;;;;5097390;28;20293;-69
2021/04/05 01:18:31;;;;;;;34.72;16.42;;;5.30;1.00;;;;;;5096427;28;20708;-69
2021/04/05 01:20:57;;;;;;;28.50;16.75;;;5.50;1.00;;;;;;5096695;28;20305;-69
2021/04/05 01:23:24;;;;;;;28.35;17.88;;;5.40;1.00;;;;;;5096234;28;20179;-69
2021/04/05 01:25:49;;;;;;;33.65;19.17;;;5.30;1.00;;;;;;5096320;28;20206;-69
2021/04/05 01:28:15;;;;;;;30.03;17.40;;;5.30;1.00;;;;;;5096576;28;20187;-69
2021/04/05 01:30:53;;;;;;;24.80;16.63;;;5.20;1.00;;;;;;5096671;28;20496;-69
2021/04/05 01:33:30;;;;;;;37.50;17.75;;;5.30;1.00;;;;;;5096405;28;20191;-69
2021/04/05 01:35:58;;;;;;;24.40;15.68;;;5.40;1.00;;;;;;5094837;28;20175;-69
2021/04/05 01:38:45;;;;;;;32.92;17.15;;;5.10;1.00;;;;;;5096249;28;20182;-69
2021/04/05 01:41:16;;;;;;;28.90;16.33;;;5.00;1.00;;;;;;5096218;28;20191;-69
2021/04/05 01:43:42;;;;;;;34.22;17.65;;;5.10;1.00;;;;;;5095951;28;20210;-69
2021/04/05 01:46:13;;;;;;;30.42;15.55;;;5.10;1.00;;;;;;5096466;28;20640;-69
2021/04/05 01:48:40;;;;;;;31.15;16.90;;;5.00;1.00;;;;;;5096767;28;20167;-69
2021/04/05 01:51:17;;;;;;;30.55;17.23;;;4.90;1.00;;;;;;5096920;28;20183;-69
2021/04/05 01:53:44;;;;;;;28.67;16.75;;;4.90;1.00;;;;;;5096797;28;20191;-69
2021/04/05 01:56:12;;;;;;;32.20;18.30;;;5.10;1.00;;;;;;5097133;28;20175;-69
2021/04/05 01:58:40;;;;;;;33.45;17.50;;;5.00;1.00;;;;;;5096703;28;20221;-69
2021/04/05 02:01:08;;;;;;;32.35;17.23;;;5.00;1.00;;;;;;5096144;28;20721;-69
2021/04/05 02:03:34;;;;;;;28.30;18.13;;;5.00;1.00;;;;;;5095827;28;20667;-69
2021/04/05 02:06:06;;;;;;;29.33;16.67;;;5.30;1.00;;;;;;5095759;28;20183;-69
2021/04/05 02:08:32;;;;;;;26.25;15.63;;;5.40;1.00;;;;;;5094570;28;20915;-69
2021/04/05 02:11:07;;;;;;;34.50;18.27;;;5.50;1.00;;;;;;5095249;28;20572;-69
2021/04/05 02:13:33;;;;;;;25.48;16.02;;;5.40;1.00;;;;;;5095577;28;20195;-69
2021/04/05 02:15:59;;;;;;;24.53;16.67;;;5.30;1.00;;;;;;5095485;28;20640;-69
2021/04/05 02:18:25;;;;;;;29.40;17.60;;;5.30;1.00;;;;;;5095485;28;20163;-69
2021/04/05 02:20:52;;;;;;;27.52;15.73;;;5.30;1.00;;;;;;5095243;28;20196;-69
2021/04/05 02:23:18;;;;;;;27.50;16.33;;;5.40;1.00;;;;;;5095182;28;20271;-69
2021/04/05 02:26:06;;;;;;;39.63;16.10;;;5.50;1.00;;;;;;5095256;28;20611;-69
2021/04/05 02:28:33;;;;;;;26.25;15.70;;;5.50;1.00;;;;;;5095248;28;20435;-69
2021/04/05 02:30:59;;;;;;;26.90;16.38;;;5.60;1.00;;;;;;5095171;28;20172;-69
2021/04/05 02:33:25;;;;;;;25.30;16.33;;;5.50;1.00;;;;;;5094982;28;20552;-68
2021/04/05 02:35:51;;;;;;;29.07;16.10;;;5.40;1.00;;;;;;5095247;28;20413;-69
2021/04/05 02:38:17;;;;;;;30.80;16.30;;;5.40;1.00;;;;;;5095237;28;20178;-69
2021/04/05 02:40:44;;;;;;;28.40;16.48;;;5.50;1.00;;;;;;5094823;28;20557;-69
2021/04/05 02:43:12;;;;;;;33.50;17.40;;;5.60;1.00;;;;;;5094939;28;20183;-69
2021/04/05 02:45:39;;;;;;;29.83;16.42;;;5.50;1.00;;;;;;5094902;28;20171;-69
2021/04/05 02:48:07;;;;;;;33.70;17.33;;;5.60;1.00;;;;;;5095408;28;20163;-69
2021/04/05 02:50:33;;;;;;;27.05;16.60;;;5.50;1.00;;;;;;5094780;28;20164;-69
2021/04/05 02:53:03;;;;;;;26.53;15.53;;;5.40;1.00;;;;;;5094666;28;20548;-69
2021/04/05 02:55:29;;;;;;;28.17;15.80;;;5.40;1.00;;;;;;5095032;28;20873;-69
2021/04/05 02:57:56;;;;;;;36.57;16.13;;;5.30;1.00;;;;;;5095624;28;20174;-69
2021/04/05 03:00:22;;;;;;;26.20;16.10;;;5.30;1.00;;;;;;5094797;28;20461;-69
2021/04/05 03:02:50;;;;;;;35.65;15.95;;;5.20;1.00;;;;;;5094742;28;20195;-69
2021/04/05 03:05:19;;;;;;;30.13;15.95;;;5.30;1.00;;;;;;5094507;28;20712;-69
2021/04/05 03:07:45;;;;;;;37.22;17.65;;;5.20;1.00;;;;;;5094298;28;20616;-69
2021/04/05 03:10:12;;;;;;;33.83;16.13;;;5.30;1.00;;;;;;5094369;28;20190;-69
2021/04/05 03:12:40;;;;;;;32.50;17.33;;;5.40;1.00;;;;;;5095746;28;20282;-69
2021/04/05 03:15:08;;;;;;;31.10;16.67;;;5.30;1.00;;;;;;5095226;28;20199;-69
2021/04/05 03:17:35;;;;;;;37.58;16.42;;;5.30;1.00;;;;;;5095453;28;20170;-69
2021/04/05 03:20:04;;;;;;;33.45;17.40;;;5.30;1.00;;;;;;5093817;28;20164;-69
2021/04/05 03:22:30;;;;;;;32.58;17.70;;;5.40;1.00;;;;;;5094205;28;20211;-69
2021/04/05 03:24:55;;;;;;;33.33;18.70;;;5.30;1.00;;;;;;5094129;28;20505;-69
2021/04/05 03:27:21;;;;;;;30.53;16.00;;;5.30;1.00;;;;;;5094207;28;20179;-69
2021/04/05 03:29:48;;;;;;;39.37;17.70;;;5.30;1.00;;;;;;5093992;28;20163;-69
2021/04/05 03:32:19;;;;;;;30.25;16.95;;;5.40;1.00;;;;;;5093905;28;20537;-69
2021/04/05 03:34:52;;;;;;;28.50;16.98;;;5.30;1.00;;;;;;5094235;28;20186;-69
2021/04/05 03:37:21;;;;;;;33.92;15.65;;;5.30;1.00;;;;;;5094079;28;20658;-69
2021/04/05 03:39:49;;;;;;;28.67;15.90;;;5.50;1.00;;;;;;5093989;28;20663;-69
2021/04/05 03:42:20;;;;;;;25.50;16.27;;;5.40;1.00;;;;;;5093667;28;20187;-69
2021/04/05 03:45:10;;;;;;;29.90;18.30;;;5.20;1.00;;;;;;5092427;28;20159;-69
2021/04/05 03:47:56;;;;;;;28.95;15.80;;;5.30;1.00;;;;;;5093783;28;20225;-69
2021/04/05 03:50:35;;;;;;;31.02;17.17;;;5.30;1.00;;;;;;5093607;28;20159;-69
2021/04/05 03:53:28;;;;;;;27.38;16.45;;;5.10;1.00;;;;;;5093795;28;20179;-69
2021/04/05 03:56:01;;;;;;;30.30;16.63;;;5.00;1.00;;;;;;5093724;28;20156;-69
2021/04/05 03:58:30;;;;;;;34.47;16.65;;;5.10;1.00;;;;;;5093480;28;20170;-69
2021/04/05 04:01:01;;;;;;;29.02;15.88;;;5.30;1.00;;;;;;5093467;28;20190;-69
2021/04/05 04:03:55;;;;;;;26.35;16.73;;;5.50;1.00;;;;;;5093545;28;20589;-69
2021/04/05 04:06:26;;;;;;;34.67;17.80;;;5.50;1.00;;;;;;5093371;28;20163;-69
2021/04/05 04:08:53;;;;;;;27.35;15.77;;;5.40;1.00;;;;;;5093185;28;20222;-69
2021/04/05 04:11:25;;;;;;;37.55;16.67;;;5.70;1.00;;;;;;5093234;28;20168;-69
2021/04/05 04:13:54;;;;;;;26.30;15.35;;;5.70;1.00;;;;;;5093316;28;20187;-69
2021/04/05 04:16:21;;;;;;;27.77;15.90;;;5.60;1.00;;;;;;5093191;28;20168;-69
2021/04/05 04:18:47;;;;;;;33.53;17.13;;;5.70;1.00;;;;;;5093113;28;20167;-69
2021/04/05 04:21:13;;;;;;;27.17;14.90;;;5.60;1.00;;;;;;5093064;28;20193;-69
2021/04/05 04:23:40;;;;;;;26.50;15.85;;;5.60;1.00;;;;;;5093037;28;20396;-69
2021/04/05 04:26:06;;;;;;;28.63;14.65;;;5.50;1.00;;;;;;5093341;28;20167;-69
2021/04/05 04:28:33;;;;;;;38.15;15.73;;;5.60;1.00;;;;;;5093370;28;20171;-69
2021/04/05 04:31:01;;;;;;;29.42;15.15;;;5.70;1.00;;;;;;5093106;28;20179;-69
2021/04/05 04:33:31;;;;;;;25.25;15.38;;;5.70;1.00;;;;;;5092410;28;20191;-69
2021/04/05 04:35:57;;;;;;;30.05;15.55;;;5.70;1.00;;;;;;5093109;28;20206;-69
2021/04/05 04:38:23;;;;;;;30.67;15.87;;;5.50;1.00;;;;;;5092973;28;20627;-70
2021/04/05 04:40:49;;;;;;;28.42;16.10;;;5.40;1.00;;;;;;5092620;28;20259;-69
2021/04/05 04:43:15;;;;;;;29.33;18.23;;;5.30;1.00;;;;;;5092991;28;20258;-69
2021/04/05 04:45:41;;;;;;;30.90;17.40;;;5.40;1.00;;;;;;5092847;28;20353;-69
2021/04/05 04:48:07;;;;;;;24.42;15.50;;;5.40;1.00;;;;;;5092937;28;20644;-69
2021/04/05 04:50:33;;;;;;;30.40;16.80;;;5.70;1.00;;;;;;5092826;28;20182;-69
2021/04/05 04:52:59;;;;;;;32.78;16.27;;;5.80;1.00;;;;;;5092832;28;20194;-69
2021/04/05 04:55:26;;;;;;;27.58;15.65;;;5.80;1.00;;;;;;5093013;28;20175;-69
2021/04/05 04:57:59;;;;;;;30.05;15.82;;;5.90;1.00;;;;;;5092729;28;20171;-69
2021/04/05 05:00:27;;;;;;;33.05;16.00;;;6.00;1.00;;;;;;5092957;28;20199;-69
2021/04/05 05:02:54;;;;;;;30.63;17.00;;;6.00;1.00;;;;;;5092976;28;20244;-69
2021/04/05 05:05:23;;;;;;;24.85;13.85;;;6.10;1.00;;;;;;5092922;28;20172;-69
2021/04/05 05:07:49;;;;;;;33.25;16.05;;;6.10;1.00;;;;;;5092609;28;20261;-69
2021/04/05 05:10:16;;;;;;;34.88;14.60;;;6.30;1.00;;;;;;5092770;28;20199;-69
2021/04/05 05:12:42;;;;;;;25.42;14.40;;;6.40;1.00;;;;;;5092504;28;20179;-69
2021/04/05 05:15:10;;;;;;;28.13;15.48;;;6.30;1.00;;;;;;5092837;28;20179;-69
2021/04/05 05:17:41;;;;;;;23.70;13.50;;;6.40;1.00;;;;;;5092433;28;20195;-69
2021/04/05 05:20:08;;;;;;;29.17;15.50;;;6.40;1.00;;;;;;5092724;28;20183;-69
2021/04/05 05:22:37;;;;;;;27.60;13.05;;;6.40;1.00;;;;;;5091262;28;20197;-69
2021/04/05 05:25:05;;;;;;;26.63;14.77;;;6.40;1.00;;;;;;5092446;28;20578;-69
2021/04/05 05:27:34;;;;;;;28.85;15.70;;;6.50;1.00;;;;;;5092464;28;20168;-69
2021/04/05 05:30:00;;;;;;;34.80;13.30;;;6.50;1.00;;;;;;5092754;28;20169;-69
2021/04/05 05:32:26;;;;;;;29.00;13.05;;;6.50;1.00;;;;;;5092525;28;20279;-69
2021/04/05 05:34:51;;;;;;;29.03;14.77;;;6.60;1.00;;;;;;5092270;28;20203;-69
2021/04/05 05:37:20;;;;;;;32.77;15.37;;;6.50;1.00;;;;;;5092353;28;20171;-69
2021/04/05 05:39:46;;;;;;;29.83;15.35;;;6.60;1.00;;;;;;5092353;28;20163;-69
2021/04/05 05:42:34;;;;;;;24.90;16.17;;;6.70;1.00;;;;;;5092421;28;20206;-69
2021/04/05 05:45:07;;;;;;;33.03;15.73;;;6.60;1.00;;;;;;5096292;28;20217;-69
2021/04/05 05:48:11;;;;;;;36.63;16.80;;;6.70;1.00;;;;;;5097287;28;20198;-69
2021/04/05 05:50:48;;;;;;;29.80;15.52;;;6.70;1.00;;;;;;5096289;28;20166;-69
2021/04/05 05:53:28;;;;;;;29.48;14.88;;;6.60;1.00;;;;;;5095921;28;20664;-69
2021/04/05 05:56:31;;;;;;;29.67;14.73;;;6.50;1.00;;;;;;5094611;28;20163;-69
2021/04/05 05:59:06;;;;;;;29.30;16.58;;;6.50;1.00;;;;;;5095852;28;20312;-69
2021/04/05 06:01:34;;;;;;;27.45;15.00;;;6.50;1.00;;;;;;5095874;28;20183;-69
2021/04/05 06:04:27;;;;;;;27.58;16.80;;;6.50;1.00;;;;;;5095669;28;20186;-69
2021/04/05 06:06:59;;;;;;;38.97;16.65;;;6.40;1.00;;;;;;5096004;28;20242;-69
2021/04/05 06:09:51;;;;;;;30.67;15.43;;;6.50;1.00;;;;;;5096329;28;20160;-69
2021/04/05 06:12:44;;;;;;;30.10;16.63;;;6.50;1.00;;;;;;5095575;28;20645;-69
2021/04/05 06:15:24;;;;;;;25.92;15.10;;;6.60;1.00;;;;;;5095928;28;20620;-68
2021/04/05 06:18:24;;;;;;;37.35;15.80;;;6.50;1.00;;;;;;5095886;28;20152;-69
2021/04/05 06:21:23;;;;;;;34.72;17.33;;;6.80;1.00;;;;;;5094207;28;20741;-69
2021/04/05 06:23:55;;;;;;;26.23;16.30;;;6.70;1.00;;;;;;5095766;28;20193;-68
2021/04/05 06:26:40;;;;;;;33.15;16.45;;;6.70;1.00;;;;;;5095668;28;20178;-69
2021/04/05 06:29:13;;;;;;;43.28;17.70;;;6.80;1.00;;;;;;5095631;28;20207;-69
2021/04/05 06:32:07;;;;;;;35.70;17.05;;;6.60;1.00;;;;;;5095596;28;20247;-68
2021/04/05 06:34:35;;;;;;;31.27;18.00;;;6.50;1.00;;;;;;5095660;28;20178;-69
2021/04/05 06:37:26;;;;;;;31.65;16.08;;;6.60;10.10;;;;;;5095460;28;20647;-69
2021/04/05 06:39:59;;;;;;;25.52;14.30;;;6.50;1.00;;;;;;5095133;28;20762;-69
2021/04/05 06:42:45;;;;;;;36.97;19.95;;;6.50;12.10;;;;;;5095242;28;20206;-69
2021/04/05 06:45:49;;;;;;;30.50;18.52;;;6.70;21.30;;;;;;5095358;28;20148;-69
2021/04/05 06:48:51;;;;;;;33.95;17.02;;;6.50;99.90;;;;;;5012851;28;20174;-69
2021/04/05 06:51:48;;;;;;;29.95;15.40;;;6.50;99.90;;;;;;5094993;28;20152;-68
2021/04/05 06:54:45;;;;;;;35.85;19.42;;;6.40;99.90;;;;;;5094840;28;20183;-69
2021/04/05 06:57:18;;;;;;;37.05;18.50;;;6.50;99.90;;;;;;5094906;28;20639;-69
2021/04/05 07:00:08;;;;;;;31.05;20.20;;;6.60;99.90;;;;;;5095095;28;20685;-69
2021/04/05 07:03:05;;;;;;;37.67;19.38;;;6.50;99.90;;;;;;5094917;28;20241;-68
2021/04/05 07:05:59;;;;;;;36.00;20.75;;;6.50;1.00;;;;;;5094769;28;20205;-69
2021/04/05 07:08:34;;;;;;;35.95;18.50;;;6.50;33.00;;;;;;5093361;28;20275;-69
2021/04/05 07:11:08;;;;;;;30.58;17.95;;;6.40;1.00;;;;;;5094998;28;20222;-69
2021/04/05 07:13:53;;;;;;;48.55;21.95;;;6.10;99.90;;;;;;5094999;28;20198;-69
2021/04/05 07:16:24;;;;;;;37.78;21.27;;;6.30;1.00;;;;;;5094345;28;20156;-69
2021/04/05 07:19:10;;;;;;;34.50;18.25;;;6.10;1.00;;;;;;5094582;28;20184;-69
2021/04/05 07:21:59;;;;;;;43.97;20.42;;;6.10;99.90;;;;;;5094387;28;20202;-69
2021/04/05 07:24:35;;;;;;;28.15;16.50;;;6.30;1.00;;;;;;5094164;28;20156;-69
2021/04/05 07:27:23;;;;;;;32.63;19.60;;;6.20;1.00;;;;;;5094360;28;20284;-69
2021/04/05 07:30:01;;;;;;;37.38;21.95;;;6.30;99.90;;;;;;5094149;28;20239;-68
2021/04/05 07:32:42;;;;;;;35.92;23.00;;;6.30;99.90;;;;;;5094166;28;20194;-68
2021/04/05 07:35:25;;;;;;;36.97;22.27;;;6.40;99.90;;;;;;5094233;28;20623;-69
2021/04/05 07:38:19;;;;;;;45.03;22.00;;;6.40;99.90;;;;;;5094087;28;20254;-69
2021/04/05 07:40:56;;;;;;;31.67;20.10;;;6.30;1.40;;;;;;5093817;28;20184;-69
2021/04/05 07:43:40;;;;;;;39.45;20.05;;;6.20;99.90;;;;;;5093981;28;20232;-68
2021/04/05 07:46:10;;;;;;;43.47;21.40;;;6.30;99.90;;;;;;5093749;28;20225;-69
2021/04/05 07:48:41;;;;;;;43.63;21.65;;;6.40;1.00;;;;;;5092476;28;20601;-69
2021/04/05 07:51:24;;;;;;;37.95;21.52;;;6.40;99.90;;;;;;5093949;28;20187;-69
2021/04/05 07:53:57;;;;;;;41.38;21.95;;;6.50;99.90;;;;;;5093661;28;20191;-69
2021/04/05 07:56:38;;;;;;;37.55;21.45;;;6.40;99.90;;;;;;5093702;28;20238;-68
2021/04/05 07:59:23;;;;;;;36.13;20.52;;;6.60;99.90;;;;;;5093816;28;20151;-68
2021/04/05 08:02:10;;;;;;;40.65;22.85;;;6.50;99.90;;;;;;5093814;28;20282;-69
2021/04/05 08:04:59;;;;;;;37.38;20.77;;;6.70;99.90;;;;;;5093591;28;20152;-69
2021/04/05 08:07:48;;;;;;;46.67;20.95;;;6.80;99.90;;;;;;5092380;28;20190;-68
2021/04/05 08:10:29;;;;;;;37.58;22.35;;;6.80;1.00;;;;;;5093593;28;20525;-69
2021/04/05 08:13:09;;;;;;;32.70;21.10;;;6.90;99.90;;;;;;5093087;28;20179;-69
2021/04/05 08:15:47;;;;;;;36.95;20.90;;;6.80;1.00;;;;;;5093320;28;20183;-69
2021/04/05 08:18:24;;;;;;;41.60;22.55;;;6.70;1.00;;;;;;5093565;28;20159;-69
2021/04/05 08:21:15;;;;;;;37.25;18.70;;;6.80;1.00;;;;;;5093169;28;20179;-69
2021/04/05 08:23:53;;;;;;;40.70;21.70;;;6.80;99.90;;;;;;5093163;28;20259;-69
2021/04/05 08:26:41;;;;;;;31.65;16.05;;;6.90;99.90;;;;;;5093090;28;20172;-69
2021/04/05 08:29:45;;;;;;;35.63;20.48;;;6.70;99.90;;;;;;5093098;28;20171;-68
2021/04/05 08:32:29;;;;;;;39.92;22.33;;;6.80;99.90;;;;;;5093112;28;20166;-68
2021/04/05 08:35:14;;;;;;;32.30;20.45;;;6.80;31.10;;;;;;5093328;28;20175;-68
2021/04/05 08:38:12;;;;;;;34.90;18.58;;;6.80;99.90;;;;;;5093287;28;20167;-68
2021/04/05 08:41:07;;;;;;;18.95;11.57;;;6.70;1.00;;;;;;5093006;28;20225;-69
2021/04/05 08:44:00;;;;;;;15.73;8.32;;;6.30;40.00;;;;;;5093286;28;20192;-69
2021/04/05 08:46:30;;;;;;;18.17;8.63;;;6.10;1.00;;;;;;5093217;28;20147;-69
2021/04/05 08:48:59;;;;;;;9.70;5.65;;;6.00;16.60;;;;;;5093360;28;20144;-68
2021/04/05 08:51:40;;;;;;;7.80;4.97;;;5.90;99.90;;;;;;5091565;28;20659;-69
2021/04/05 08:54:07;;;;;;;8.50;6.55;;;5.80;1.00;;;;;;5092717;28;20197;-69
2021/04/05 08:56:38;;;;;;;9.25;6.30;;;6.00;1.00;;;;;;5092873;28;20195;-69
2021/04/05 08:59:17;;;;;;;13.38;6.85;;;5.70;99.90;;;;;;5093119;28;20191;-69
2021/04/05 09:01:59;;;;;;;8.32;4.80;;;5.80;1.00;;;;;;5092807;28;20187;-69
2021/04/05 09:04:26;;;;;;;14.35;6.85;;;5.60;99.90;;;;;;5092774;28;20160;-69
2021/04/05 09:07:08;;;;;;;10.73;5.75;;;5.80;72.50;;;;;;5092672;28;20168;-69
2021/04/05 09:09:36;;;;;;;6.50;3.97;;;5.60;1.00;;;;;;5092806;28;20159;-69
2021/04/05 09:12:04;;;;;;;12.77;6.55;;;5.30;99.90;;;;;;5092623;28;20168;-69
2021/04/05 09:14:37;;;;;;;7.53;4.28;;;5.40;1.00;;;;;;5092531;28;20172;-69
2021/04/05 09:17:33;;;;;;;8.50;4.22;;;5.40;1.00;;;;;;5092265;28;20160;-69
2021/04/05 09:20:27;;;;;;;6.80;4.70;;;5.80;1.00;;;;;;5096412;28;20178;-69
2021/04/05 09:23:03;;;;;;;7.03;3.08;;;5.90;99.90;;;;;;5095136;28;20223;-69
2021/04/05 09:25:47;;;;;;;3.83;2.40;;;5.40;96.00;;;;;;5095158;28;20163;-69
2021/04/05 09:28:31;;;;;;;5.30;2.95;;;5.40;1.00;;;;;;5096518;28;20187;-69
2021/04/05 09:31:30;;;;;;;2.70;2.13;;;5.50;99.90;;;;;;5096337;28;20647;-69
2021/04/05 09:34:39;;;;;;;6.43;3.17;;;5.50;1.00;;;;;;5096273;28;20197;-69
2021/04/05 09:37:24;;;;;;;5.47;3.20;;;5.70;1.00;;;;;;5096841;28;20234;-69
2021/04/05 09:40:26;;;;;;;4.95;2.75;;;5.50;99.90;;;;;;5096519;28;20152;-69
2021/04/05 09:43:24;;;;;;;2.50;1.75;;;5.60;99.90;;;;;;5096093;28;20567;-69
2021/04/05 09:46:38;;;;;;;4.35;2.30;;;5.40;1.00;;;;;;5096450;28;20155;-69
2021/04/05 09:49:20;;;;;;;2.38;1.80;;;5.40;99.90;;;;;;5078692;28;20660;-69
2021/04/05 09:52:07;;;;;;;3.78;1.40;;;5.10;1.00;;;;;;5096341;28;20351;-69
2021/04/05 09:54:43;;;;;;;3.67;2.38;;;5.20;53.10;;;;;;5095933;28;20197;-69
2021/04/05 09:57:16;;;;;;;4.65;1.48;;;5.40;87.20;;;;;;5096017;28;20224;-69
2021/04/05 09:59:52;;;;;;;1.75;1.55;;;5.30;99.90;;;;;;5095851;28;20152;-69
2021/04/05 10:02:29;;;;;;;2.42;1.50;;;5.10;99.90;;;;;;5095950;28;20282;-69
2021/04/05 10:04:56;;;;;;;3.45;1.73;;;5.10;1.00;;;;;;5095894;28;20230;-68
2021/04/05 10:07:23;;;;;;;2.38;2.10;;;4.90;1.00;;;;;;5095575;28;20179;-69
2021/04/05 10:09:49;;;;;;;2.60;1.10;;;5.00;18.00;;;;;;5095931;28;20171;-68
2021/04/05 10:12:16;;;;;;;4.65;1.55;;;4.90;1.00;;;;;;5096086;28;20168;-69
2021/04/05 10:14:43;;;;;;;5.60;1.65;;;4.90;99.90;;;;;;5096323;28;20219;-69
2021/04/05 10:17:11;;;;;;;4.20;1.52;;;4.90;1.00;;;;;;5095471;28;20168;-69
2021/04/05 10:19:40;;;;;;;5.88;2.45;;;4.80;1.00;;;;;;5095723;28;20229;-69
2021/04/05 10:22:13;;;;;;;10.13;2.92;;;4.70;1.00;;;;;;5095240;28;20191;-68
2021/04/05 10:24:42;;;;;;;3.58;1.80;;;4.60;1.00;;;;;;5095460;28;20156;-68
2021/04/05 10:27:11;;;;;;;3.10;1.55;;;4.10;99.90;;;;;;5094456;28;20175;-69
2021/04/05 10:29:38;;;;;;;3.13;1.75;;;3.70;99.90;;;;;;5094600;28;20324;-69
2021/04/05 10:32:06;;;;;;;11.00;2.40;;;3.90;99.90;;;;;;5094891;28;20644;-69
2021/04/05 10:34:34;;;;;;;9.38;1.52;;;4.00;99.90;;;;;;5095347;28;20532;-68
2021/04/05 10:37:14;;;;;;;3.97;2.17;;;4.20;99.90;;;;;;5095400;28;20266;-69
2021/04/05 10:39:46;;;;;;;6.40;2.20;;;4.20;99.90;;;;;;5095368;28;20584;-68
2021/04/05 10:42:20;;;;;;;3.92;1.92;;;4.40;99.90;;;;;;5095210;28;20536;-69
2021/04/05 10:44:47;;;;;;;10.80;2.17;;;4.40;99.90;;;;;;5095603;28;20156;-69
2021/04/05 10:47:23;;;;;;;3.53;1.75;;;4.60;99.90;;;;;;5094932;28;20254;-68
2021/04/05 10:49:52;;;;;;;7.35;2.10;;;4.90;99.90;;;;;;5094890;28;20243;-68
2021/04/05 10:52:23;;;;;;;14.50;1.73;;;3.80;99.90;;;;;;5094799;28;20229;-69
2021/04/05 10:54:52;;;;;;;7.07;2.13;;;4.30;99.90;;;;;;5094811;28;20541;-69
2021/04/05 10:57:26;;;;;;;4.53;1.70;;;3.80;99.90;;;;;;5094996;28;20175;-69
2021/04/05 10:59:54;;;;;;;47.65;3.72;;;4.50;99.90;;;;;;5094741;28;20171;-68
2021/04/05 11:02:40;;;;;;;9.48;2.00;;;4.80;76.40;;;;;;5094569;28;20699;-69
2021/04/05 11:05:12;;;;;;;10.27;2.35;;;4.50;27.80;;;;;;5094571;28;20209;-69
2021/04/05 11:07:41;;;;;;;8.90;1.88;;;4.30;99.90;;;;;;5094576;28;20190;-69
2021/04/05 11:10:18;;;;;;;11.88;2.50;;;4.20;84.40;;;;;;5094543;28;20190;-69
2021/04/05 11:12:47;;;;;;;6.28;1.80;;;4.10;91.20;;;;;;5094373;28;20194;-68
2021/04/05 11:15:18;;;;;;;8.27;1.95;;;4.40;99.90;;;;;;5094642;28;20167;-69
2021/04/05 11:17:47;;;;;;;8.68;3.47;;;4.50;1.00;;;;;;5094400;28;20712;-69
2021/04/05 11:20:14;;;;;;;6.55;2.03;;;4.50;99.90;;;;;;5094473;28;20186;-69
2021/04/05 11:22:41;;;;;;;7.88;1.98;;;4.60;17.00;;;;;;5094120;28;20199;-68
2021/04/05 11:25:12;;;;;;;5.82;1.60;;;4.30;29.70;;;;;;5094169;28;20175;-68
2021/04/05 11:27:42;;;;;;;8.15;2.42;;;4.30;38.00;;;;;;5092911;28;20198;-69
2021/04/05 11:30:09;;;;;;;12.07;2.30;;;4.60;99.90;;;;;;5094458;28;20178;-69
2021/04/05 11:32:38;;;;;;;14.27;3.17;;;4.90;99.90;;;;;;5093980;28;20710;-68
2021/04/05 11:35:07;;;;;;;4.20;1.98;;;4.50;99.90;;;;;;5094013;28;20284;-68
2021/04/05 11:37:35;;;;;;;12.23;2.10;;;3.80;99.90;;;;;;5094008;28;20173;-68
2021/04/05 11:40:26;;;;;;;3.95;2.03;;;4.10;1.00;;;;;;5093935;28;20174;-68
2021/04/05 11:42:53;;;;;;;5.88;2.03;;;4.10;99.90;;;;;;5093635;28;20656;-68
2021/04/05 11:45:28;;;;;;;5.47;2.38;;;4.20;99.90;;;;;;5094017;28;20176;-68
2021/04/05 11:47:56;;;;;;;4.32;2.13;;;4.20;1.00;;;;;;5094143;28;20276;-68
2021/04/05 11:50:23;;;;;;;2.10;1.90;;;3.60;1.00;;;;;;5093711;28;20233;-68
2021/04/05 11:52:55;;;;;;;2.22;1.58;;;4.00;1.00;;;;;;5093931;28;20260;-68
2021/04/05 11:55:29;;;;;;;3.38;1.65;;;3.30;1.00;;;;;;5093615;28;20193;-69
2021/04/05 11:58:06;;;;;;;2.58;1.65;;;3.40;1.00;;;;;;5093510;28;20148;-69
2021/04/05 12:00:44;;;;;;;6.00;1.33;;;3.20;33.00;;;;;;5093560;28;20234;-69
2021/04/05 12:03:33;;;;;;;3.75;1.00;;;3.90;1.00;;;;;;5093665;28;20552;-69
2021/04/05 12:06:20;;;;;;;6.75;1.58;;;3.70;1.00;;;;;;5093494;28;20152;-69
2021/04/05 12:08:52;;;;;;;6.70;2.28;;;4.40;1.00;;;;;;5093849;28;20347;-69
2021/04/05 12:11:20;;;;;;;6.53;1.15;;;4.20;1.00;;;;;;5093304;28;20168;-68
2021/04/05 12:13:54;;;;;;;3.83;1.23;;;4.70;1.00;;;;;;5093291;28;20184;-69
2021/04/05 12:16:24;;;;;;;4.68;1.33;;;4.40;1.00;;;;;;5093266;28;20156;-69
2021/04/05 12:18:54;;;;;;;4.03;1.75;;;5.00;1.00;;;;;;5093219;28;20167;-69
2021/04/05 12:21:27;;;;;;;3.65;1.27;;;5.30;1.00;;;;;;5093342;28;20190;-69
2021/04/05 12:23:57;;;;;;;2.65;1.17;;;4.80;1.00;;;;;;5093353;28;20551;-69
2021/04/05 12:26:27;;;;;;;2.88;1.20;;;4.50;1.00;;;;;;5093015;28;20195;-68
2021/04/05 12:28:57;;;;;;;5.57;1.00;;;4.60;1.00;;;;;;5093059;28;20191;-69
2021/04/05 12:31:24;;;;;;;1.50;1.00;;;5.30;1.00;;;;;;5093002;28;20187;-69
2021/04/05 12:33:56;;;;;;;8.18;0.90;;;5.60;1.00;;;;;;5092969;28;20179;-68
2021/04/05 12:36:29;;;;;;;3.95;1.48;;;5.70;1.00;;;;;;5093396;28;20152;-69
2021/04/05 12:38:56;;;;;;;2.55;0.90;;;5.40;1.00;;;;;;5093036;28;20242;-68
2021/04/05 12:41:22;;;;;;;3.85;1.17;;;5.20;1.00;;;;;;5093368;28;20628;-68
2021/04/05 12:43:51;;;;;;;4.50;1.00;;;4.90;1.00;;;;;;5092720;28;20210;-69
2021/04/05 12:46:19;;;;;;;3.40;0.90;;;4.10;1.00;;;;;;5092965;28;20873;-68
2021/04/05 12:48:45;;;;;;;3.75;0.95;;;4.10;1.00;;;;;;5093192;28;20171;-69
2021/04/05 12:51:13;;;;;;;7.80;1.98;;;3.70;1.00;;;;;;5092965;28;20210;-68
2021/04/05 12:53:42;;;;;;;1.85;0.73;;;3.80;1.00;;;;;;5094289;28;20194;-69
2021/04/05 12:56:16;;;;;;;2.97;0.93;;;3.50;1.00;;;;;;5096990;28;20571;-69
2021/04/05 12:58:42;;;;;;;4.53;2.53;;;3.00;1.00;;;;;;5096997;28;20162;-69
2021/04/05 13:01:08;;;;;;;7.77;1.33;;;3.10;1.00;;;;;;5096923;28;20190;-68
2021/04/05 13:03:38;;;;;;;4.33;1.27;;;3.80;1.00;;;;;;5097259;28;20210;-69
2021/04/05 13:06:17;;;;;;;6.90;1.70;;;3.60;1.00;;;;;;5096631;28;20160;-69
2021/04/05 13:09:03;;;;;;;4.07;1.00;;;3.50;1.00;;;;;;5096687;28;20194;-69
2021/04/05 13:11:35;;;;;;;17.58;1.20;;;4.30;1.00;;;;;;5096769;28;20151;-69
2021/04/05 13:14:13;;;;;;;7.50;1.65;;;3.70;1.00;;;;;;5096547;28;20191;-69
2021/04/05 13:17:02;;;;;;;8.05;2.00;;;4.40;1.00;;;;;;5095221;28;20244;-68
2021/04/05 13:19:32;;;;;;;8.27;1.13;;;5.90;1.00;;;;;;5096852;28;20151;-69
2021/04/05 13:21:58;;;;;;;4.32;1.10;;;6.00;99.90;;;;;;5096390;28;20187;-69
2021/04/05 13:24:31;;;;;;;5.28;1.73;;;5.70;99.90;;;;;;5096313;28;20236;-69